WetterOnline ( https://www.wetteronline.at )

Wetter aktuell Finsterwalde

Aktuelles Wetter: Kirchhain (100m)

6-stündlich | Neueste Meldungen
Ortszeit Temperatur Wetter
Mi, 11.12. 1:00 -0.4° C wolkenlos
Di, 10.12. 19:00 1.4° C wolkenlos
Di, 10.12. 13:00 5.2° C wolkenlos
Di, 10.12. 7:00 2.1° C wolkenlos
Di, 10.12. 1:00 5.3° C bedeckt
Mo, 09.12. 19:00 6.9° C bewölkt
Mo, 09.12. 13:00 9.9° C leicht bewölkt
Mo, 09.12. 7:00 6.4° C bewölkt
Ortszeit Temperatur Wetter
Mi, 11.12. 4:00 -0.2° C leicht bewölkt
Mi, 11.12. 3:50 -0.2° C leicht bewölkt
Mi, 11.12. 3:40 -0.1° C wolkig
Mi, 11.12. 3:30 -0.2° C wolkig
Mi, 11.12. 3:20 -0.2° C wolkig
Mi, 11.12. 3:10 -0.6° C wolkig
Mi, 11.12. 3:00 -0.3° C wolkig
Mi, 11.12. 2:30 -0.1° C wolkenlos
Mi, 11.12. 2:00 -0.3° C leicht bewölkt
Mi, 11.12. 1:30 -0.5° C leicht bewölkt
Mi, 11.12. 1:00 -0.4° C wolkenlos
Ortszeit Relative Feuchte Sichtweite
Mi, 11.12. 1:00 83% 35 km
Di, 10.12. 19:00 90% 15 km
Di, 10.12. 13:00 73% 30 km
Di, 10.12. 7:00 87% 29 km
Di, 10.12. 1:00 85% 30 km
Mo, 09.12. 19:00 86% 70 km
Mo, 09.12. 13:00 60% 29 km
Mo, 09.12. 7:00 76% 70 km
Ortszeit Relative Feuchte Sichtweite
Mi, 11.12. 4:00 77% 35 km
Mi, 11.12. 3:50 77% -
Mi, 11.12. 3:40 77% -
Mi, 11.12. 3:30 78% 35 km
Mi, 11.12. 3:20 78% -
Mi, 11.12. 3:10 79% -
Mi, 11.12. 3:00 78% 40 km
Mi, 11.12. 2:30 78% 40 km
Mi, 11.12. 2:00 80% 40 km
Mi, 11.12. 1:30 82% 35 km
Mi, 11.12. 1:00 83% 35 km
Ortszeit Niederschlagsmenge Niederschlagsart
Mi, 11.12. 1:00 0.0 l/m2 in 6 Std. -
Di, 10.12. 19:00 0.0 l/m2 in 12 Std. -
Di, 10.12. 13:00 0.0 l/m2 in 6 Std. -
Di, 10.12. 7:00 0.7 l/m2 in 12 Std. -
Di, 10.12. 1:00 0.7 l/m2 in 6 Std. Regen
Mo, 09.12. 19:00 0.4 l/m2 in 12 Std. Regen
Mo, 09.12. 13:00 0.1 l/m2 in 6 Std. Sprühregen
Mo, 09.12. 7:00 0.1 l/m2 in 12 Std. Regen
Ortszeit Niederschlagsmenge Niederschlagsart
Mi, 11.12. 4:00 0.0 l/m2 in 1 Std. -
Mi, 11.12. 3:50 keine Meldung -
Mi, 11.12. 3:40 keine Meldung -
Mi, 11.12. 3:30 0.0 l/m2 in 1 Std. -
Mi, 11.12. 3:20 keine Meldung -
Mi, 11.12. 3:10 keine Meldung -
Mi, 11.12. 3:00 0.0 l/m2 in 1 Std. -
Mi, 11.12. 2:30 0.0 l/m2 in 1 Std. -
Mi, 11.12. 2:00 0.0 l/m2 in 1 Std. -
Mi, 11.12. 1:30 0.0 l/m2 in 1 Std. -
Mi, 11.12. 1:00 0.0 l/m2 in 1 Std. -
Ortszeit Stärke Spitze Richtung
km/h Bft. km/h Grad Sektor
Mi, 11.12. 1:00 9 2 17 180° S
Di, 10.12. 19:00 9 2 26 200° S
Di, 10.12. 13:00 20 4 31 280° W
Di, 10.12. 7:00 18 3 40 280° W
Di, 10.12. 1:00 22 4 47 280° W
Mo, 09.12. 19:00 14 3 36 220° SW
Mo, 09.12. 13:00 14 3 40 210° SW
Mo, 09.12. 7:00 14 3 36 190° S
Ortszeit Stärke Spitze Richtung
km/h Bft. km/h Grad Sektor
Mi, 11.12. 4:00 13 3 20 180° S
Mi, 11.12. 3:50 13 3 - 180° S
Mi, 11.12. 3:40 13 3 - 170° S
Mi, 11.12. 3:30 13 3 20 170° S
Mi, 11.12. 3:20 13 3 - 170° S
Mi, 11.12. 3:10 11 2 - 170° S
Mi, 11.12. 3:00 11 2 22 180° S
Mi, 11.12. 2:30 13 3 22 180° S
Mi, 11.12. 2:00 11 2 18 170° S
Mi, 11.12. 1:30 11 2 18 170° S
Mi, 11.12. 1:00 9 2 17 180° S
Ortszeit Untergrenze Bedeckung Gattung
total tief tief mittel hoch
Mi, 11.12. 1:00 - 0/8 0/8 - - -
Di, 10.12. 19:00 - 0/8 0/8 - - -
Di, 10.12. 13:00 - 0/8 0/8 - - -
Di, 10.12. 7:00 - 0/8 0/8 - - -
Di, 10.12. 1:00 1800 m 8/8 8/8 - - -
Mo, 09.12. 19:00 780 m 7/8 8/8 - - -
Mo, 09.12. 13:00 2100 m 3/8 3/8 - - -
Mo, 09.12. 7:00 990 m 8/8 6/8 - - -
Ortszeit Bedeckungsgrad in Achtel und Wolkenuntergrenze
Mi, 11.12. 4:00 3(9000m) 4(10500m)
Mi, 11.12. 3:50 3(9000m) 4(10500m)
Mi, 11.12. 3:40 5(9000m) 8(10500m)
Mi, 11.12. 3:30 1(10500m) 8(10500m)
Mi, 11.12. 3:20 1(10500m) 8(10500m)
Mi, 11.12. 3:10 8(10500m)
Mi, 11.12. 3:00 7(10500m)
Mi, 11.12. 2:30 2(10500m)
Mi, 11.12. 2:00 5(10500m) 5(10500m)
Mi, 11.12. 1:30 4(10500m) 7(10500m)
Mi, 11.12. 1:00 keine Wolken
Ortszeit Luftdruck NN (hPa) Tendenz (hPa in 3 Std.)
Mi, 11.12. 1:00 1021 - 2,5
Di, 10.12. 19:00 1025 - 0,2
Di, 10.12. 13:00 1025 + 1,4
Di, 10.12. 7:00 1020 + 3,6
Di, 10.12. 1:00 1011 + 4,2
Mo, 09.12. 19:00 1003 + 2,2
Mo, 09.12. 13:00 1000 - 0,6
Mo, 09.12. 7:00 1001 + 1,0
Ortszeit Luftdruck NN (hPa) Tendenz (hPa in 3 Std.)
Mi, 11.12. 4:00 1019 - 2,9
Mi, 11.12. 3:50 1019 keine Meldung
Mi, 11.12. 3:40 1019 keine Meldung
Mi, 11.12. 3:30 1019 - 2,7
Mi, 11.12. 3:20 1019 keine Meldung
Mi, 11.12. 3:10 1019 keine Meldung
Mi, 11.12. 3:00 1020 - 3,0
Mi, 11.12. 2:30 1020 - 3,0
Mi, 11.12. 2:00 1020 - 3,0
Mi, 11.12. 1:30 1021 - 2,6
Mi, 11.12. 1:00 1021 - 2,5
Ortszeit Schneehöhe (cm)
Mi, 11.12. 1:00 0
Di, 10.12. 19:00 0
Di, 10.12. 13:00 0
Di, 10.12. 7:00 0
Di, 10.12. 1:00 0
Mo, 09.12. 19:00 0
Mo, 09.12. 13:00 0
Mo, 09.12. 7:00 0
Ortszeit Schneehöhe (cm)
Mi, 11.12. 4:00 0
Mi, 11.12. 3:50 0
Mi, 11.12. 3:40 0
Mi, 11.12. 3:30 0
Mi, 11.12. 3:20 0
Mi, 11.12. 3:10 0
Mi, 11.12. 3:00 0
Mi, 11.12. 2:30 0
Mi, 11.12. 2:00 0
Mi, 11.12. 1:30 0
Mi, 11.12. 1:00 0
Link zu dieser Seite / Seite empfehlen

Das Wetter in ...